Time;durP1;ratioP1;P1;durP2;ratioP2;P2;SDS_P1;SDS_P2;PMS_P1;PMS_P2;Temp;Humidity;BMP_temperature;BMP_pressure;BME280_temperature;BME280_humidity;BME280_pressure;Samples;Min_cycle;Max_cycle;Signal;HPM_P1;HPM_P2
2021/12/20 00:01:43;;;;;;;9.90;5.10;;;10.30;99.90;;;;;;5071673;28;20420;-68
2021/12/20 00:04:08;;;;;;;10.00;4.40;;;10.30;99.90;;;;;;5068885;28;20473;-69
2021/12/20 00:06:34;;;;;;;6.90;4.47;;;10.30;99.90;;;;;;5069179;28;20416;-68
2021/12/20 00:09:00;;;;;;;6.17;4.70;;;10.30;99.90;;;;;;5071064;28;20508;-70
2021/12/20 00:11:26;;;;;;;6.50;4.60;;;10.30;99.90;;;;;;5070297;28;20366;-68
2021/12/20 00:13:52;;;;;;;9.70;5.03;;;10.40;99.90;;;;;;5064533;28;20494;-69
2021/12/20 00:16:17;;;;;;;5.70;4.30;;;10.30;99.90;;;;;;5050670;28;20189;-68
2021/12/20 00:18:43;;;;;;;9.10;5.10;;;10.30;99.90;;;;;;5051200;28;20618;-69
2021/12/20 00:21:11;;;;;;;7.23;4.70;;;10.30;99.90;;;;;;5050437;28;20175;-69
2021/12/20 00:23:37;;;;;;;8.20;4.73;;;10.20;99.90;;;;;;5052702;28;20469;-68
2021/12/20 00:26:03;;;;;;;9.20;4.97;;;10.20;99.90;;;;;;5050182;28;20418;-70
2021/12/20 00:28:29;;;;;;;10.27;5.13;;;10.20;99.90;;;;;;5050761;28;20420;-68
2021/12/20 00:30:55;;;;;;;6.67;4.50;;;10.20;99.90;;;;;;5050996;28;20471;-68
2021/12/20 00:33:21;;;;;;;6.83;5.00;;;10.20;99.90;;;;;;5051537;28;20507;-68
2021/12/20 00:35:47;;;;;;;6.97;5.10;;;10.20;99.90;;;;;;5074895;28;20938;-68
2021/12/20 00:40:59;;;;;;;6.43;4.73;;;10.20;99.90;;;;;;5073883;28;20472;-68
2021/12/20 00:43:25;;;;;;;10.97;4.90;;;10.10;99.90;;;;;;5061404;28;20523;-70
2021/12/20 00:45:50;;;;;;;6.83;5.20;;;10.10;99.90;;;;;;5071992;28;20252;-68
2021/12/20 00:48:16;;;;;;;6.63;4.40;;;10.00;99.90;;;;;;5073648;28;20480;-69
2021/12/20 00:50:44;;;;;;;8.30;4.60;;;9.90;99.90;;;;;;5075033;28;20228;-68
2021/12/20 00:53:11;;;;;;;12.40;4.87;;;9.90;99.90;;;;;;5073332;28;20198;-68
2021/12/20 00:55:38;;;;;;;8.40;4.53;;;9.90;99.90;;;;;;5075124;28;20977;-71
2021/12/20 00:58:04;;;;;;;7.90;4.70;;;9.90;99.90;;;;;;5074108;28;20943;-76
2021/12/20 01:00:34;;;;;;;8.97;4.53;;;9.90;99.90;;;;;;5074262;28;20417;-68
2021/12/20 01:03:02;;;;;;;8.23;4.23;;;9.90;99.90;;;;;;5073165;28;20458;-68
2021/12/20 01:05:28;;;;;;;8.87;4.90;;;9.90;99.90;;;;;;5073202;28;20430;-68
2021/12/20 01:07:57;;;;;;;6.47;4.73;;;9.90;99.90;;;;;;5075100;28;20416;-68
2021/12/20 01:10:25;;;;;;;6.87;5.27;;;9.90;99.90;;;;;;5074458;28;20183;-68
2021/12/20 01:12:53;;;;;;;9.00;4.43;;;10.00;99.90;;;;;;5068326;28;20480;-68
2021/12/20 01:15:22;;;;;;;7.20;4.50;;;10.00;99.90;;;;;;5054964;28;20431;-68
2021/12/20 01:17:49;;;;;;;7.67;4.80;;;10.00;99.90;;;;;;5055384;28;20437;-68
2021/12/20 01:20:15;;;;;;;7.10;4.80;;;10.00;99.90;;;;;;5054431;28;20412;-68
2021/12/20 01:22:46;;;;;;;5.43;4.27;;;10.00;99.90;;;;;;5066186;28;20423;-68
2021/12/20 01:25:13;;;;;;;11.90;5.30;;;10.00;99.90;;;;;;5072297;28;20773;-68
2021/12/20 01:27:38;;;;;;;7.27;4.40;;;10.00;99.90;;;;;;5074866;28;20476;-67
2021/12/20 01:30:06;;;;;;;6.10;4.50;;;10.00;99.90;;;;;;5073671;28;20511;-72
2021/12/20 01:32:32;;;;;;;11.03;5.77;;;10.00;99.90;;;;;;5072675;28;20460;-69
2021/12/20 01:34:58;;;;;;;9.97;5.10;;;10.00;99.90;;;;;;5071107;28;20969;-68
2021/12/20 01:37:24;;;;;;;5.40;4.50;;;10.00;99.90;;;;;;5073750;28;21236;-68
2021/12/20 01:39:49;;;;;;;6.63;4.97;;;10.00;99.90;;;;;;5073749;28;20166;-68
2021/12/20 01:42:18;;;;;;;7.93;4.50;;;10.00;99.90;;;;;;5071991;28;20181;-68
2021/12/20 01:44:45;;;;;;;6.60;4.67;;;10.00;99.90;;;;;;5071771;28;20229;-68
2021/12/20 01:47:12;;;;;;;6.00;4.60;;;9.90;99.90;;;;;;5071620;28;20437;-68
2021/12/20 01:49:51;;;;;;;7.27;5.27;;;10.00;99.90;;;;;;5073452;28;20499;-68
2021/12/20 01:52:20;;;;;;;7.63;4.87;;;9.90;99.90;;;;;;5071870;28;20449;-68
2021/12/20 01:54:46;;;;;;;9.07;5.60;;;9.90;99.90;;;;;;5073448;28;20409;-68
2021/12/20 01:57:11;;;;;;;8.13;5.10;;;9.90;99.90;;;;;;5072717;28;20409;-68
2021/12/20 01:59:39;;;;;;;5.80;5.03;;;10.00;99.90;;;;;;5072584;28;20185;-68
2021/12/20 02:02:06;;;;;;;7.53;5.00;;;10.00;99.90;;;;;;5071982;28;20208;-76
2021/12/20 02:04:41;;;;;;;12.60;5.00;;;10.00;99.90;;;;;;5073091;28;20443;-68
2021/12/20 02:07:07;;;;;;;10.07;4.07;;;10.00;99.90;;;;;;5040702;28;20806;-77
2021/12/20 02:09:33;;;;;;;8.27;4.20;;;10.00;99.90;;;;;;5047565;28;20558;-68
2021/12/20 02:11:59;;;;;;;10.23;4.70;;;10.00;99.90;;;;;;5068623;28;20428;-68
2021/12/20 02:14:25;;;;;;;6.80;4.13;;;10.00;99.90;;;;;;5073769;28;20178;-68
2021/12/20 02:16:50;;;;;;;6.83;4.60;;;10.00;99.90;;;;;;5074082;28;20440;-68
2021/12/20 02:19:17;;;;;;;6.53;4.00;;;10.00;99.90;;;;;;5073115;28;20177;-68
2021/12/20 02:21:44;;;;;;;8.70;4.50;;;10.00;99.90;;;;;;5074271;28;20184;-68
2021/12/20 02:24:11;;;;;;;10.33;4.37;;;9.90;99.90;;;;;;5072184;28;20426;-69
2021/12/20 02:26:37;;;;;;;6.97;3.90;;;9.90;99.90;;;;;;5073974;28;20413;-68
2021/12/20 02:29:05;;;;;;;11.63;4.20;;;9.90;99.90;;;;;;5068554;28;20428;-68
2021/12/20 02:39:30;;;;;;;13.37;4.50;;;9.70;99.90;;;;;;5053313;28;20412;-68
2021/12/20 02:41:56;;;;;;;9.70;3.83;;;9.80;99.90;;;;;;5064473;28;20435;-67
2021/12/20 02:44:24;;;;;;;8.87;4.33;;;9.70;99.90;;;;;;5072771;28;20418;-68
2021/12/20 02:49:23;;;;;;;15.40;5.70;;;9.80;99.90;;;;;;5072899;28;20427;-68
2021/12/20 02:51:51;;;;;;;8.87;5.10;;;9.80;99.90;;;;;;5072095;28;20420;-69
2021/12/20 02:54:20;;;;;;;6.47;4.30;;;9.70;99.90;;;;;;5060546;28;20476;-68
2021/12/20 02:56:46;;;;;;;9.23;4.80;;;9.70;99.90;;;;;;5052940;28;20422;-68
2021/12/20 02:59:13;;;;;;;8.43;4.50;;;9.70;99.90;;;;;;5052688;28;20423;-69
2021/12/20 03:01:45;;;;;;;15.20;4.33;;;9.70;99.90;;;;;;5053500;28;20518;-68
2021/12/20 03:04:11;;;;;;;11.97;4.40;;;9.70;99.90;;;;;;5052814;28;20399;-77
2021/12/20 03:06:44;;;;;;;14.00;5.03;;;9.70;99.90;;;;;;5066076;28;20923;-68
2021/12/20 03:09:16;;;;;;;6.37;3.90;;;9.70;99.90;;;;;;5072651;28;20402;-77
2021/12/20 03:11:42;;;;;;;8.33;5.27;;;9.70;99.90;;;;;;5073372;28;20863;-68
2021/12/20 03:14:17;;;;;;;8.13;4.23;;;9.60;99.90;;;;;;5073137;28;20467;-76
2021/12/20 03:16:43;;;;;;;7.10;4.17;;;9.70;99.90;;;;;;5073315;28;20407;-68
2021/12/20 03:19:09;;;;;;;10.00;4.87;;;9.70;99.90;;;;;;5071272;28;20423;-76
2021/12/20 03:21:35;;;;;;;7.83;4.20;;;9.70;99.90;;;;;;5072445;28;20412;-68
2021/12/20 03:24:02;;;;;;;8.20;4.43;;;9.60;99.90;;;;;;5072783;28;20178;-68
2021/12/20 03:26:27;;;;;;;9.77;4.10;;;9.60;99.90;;;;;;5071977;28;20407;-68
2021/12/20 03:28:53;;;;;;;7.80;3.70;;;9.60;99.90;;;;;;5072958;28;20435;-68
2021/12/20 03:31:19;;;;;;;7.80;3.73;;;9.60;99.90;;;;;;5072082;28;20257;-68
2021/12/20 03:33:45;;;;;;;12.10;4.57;;;9.60;99.90;;;;;;5072726;28;20210;-68
2021/12/20 03:36:11;;;;;;;6.73;3.97;;;9.60;99.90;;;;;;5072445;28;20173;-77
2021/12/20 03:38:37;;;;;;;7.73;3.63;;;9.60;99.90;;;;;;5071089;28;20938;-68
2021/12/20 03:41:03;;;;;;;6.03;4.40;;;9.60;99.80;;;;;;5072433;28;20413;-68
2021/12/20 03:43:31;;;;;;;9.23;3.70;;;9.60;99.90;;;;;;5070826;28;20188;-68
2021/12/20 03:46:04;;;;;;;13.60;4.77;;;9.60;99.90;;;;;;5072640;28;20479;-68
2021/12/20 03:48:29;;;;;;;8.80;4.20;;;9.60;99.90;;;;;;5071546;28;20452;-68
2021/12/20 03:50:57;;;;;;;8.07;4.87;;;9.60;99.70;;;;;;5071141;28;20514;-68
2021/12/20 03:53:22;;;;;;;8.87;4.10;;;9.60;99.30;;;;;;5071739;28;20474;-67
2021/12/20 03:55:48;;;;;;;10.50;3.90;;;9.70;99.50;;;;;;5056439;28;20431;-68
2021/12/20 03:58:14;;;;;;;7.70;5.50;;;9.60;99.10;;;;;;5051986;28;20173;-77
2021/12/20 04:00:40;;;;;;;9.83;3.97;;;9.70;99.50;;;;;;5052566;28;20182;-67
2021/12/20 04:03:11;;;;;;;11.87;4.03;;;9.60;99.80;;;;;;5052372;28;20181;-67
2021/12/20 04:05:37;;;;;;;6.93;3.40;;;9.60;99.90;;;;;;5052197;28;20413;-67
2021/12/20 04:08:02;;;;;;;13.03;3.80;;;9.50;99.70;;;;;;5052845;28;20432;-67
2021/12/20 04:10:28;;;;;;;10.10;5.10;;;9.50;99.90;;;;;;5050290;28;20896;-67
2021/12/20 04:12:54;;;;;;;12.30;4.20;;;9.50;99.90;;;;;;5052152;28;20476;-67
2021/12/20 04:15:20;;;;;;;11.47;4.07;;;9.50;99.80;;;;;;5051514;28;20180;-67
2021/12/20 04:17:46;;;;;;;10.33;4.20;;;9.60;99.90;;;;;;5054393;28;20202;-67
2021/12/20 04:20:12;;;;;;;11.93;4.97;;;9.60;99.90;;;;;;5072195;28;20185;-67
2021/12/20 04:22:38;;;;;;;7.90;4.53;;;9.60;99.90;;;;;;5071684;28;20420;-67
2021/12/20 04:25:04;;;;;;;15.13;4.63;;;9.60;99.90;;;;;;5071892;28;20764;-67
2021/12/20 04:27:30;;;;;;;8.70;4.60;;;9.60;99.60;;;;;;5070080;28;20181;-67
2021/12/20 04:29:56;;;;;;;12.87;3.67;;;9.60;99.60;;;;;;5069203;28;20442;-67
2021/12/20 04:32:22;;;;;;;17.57;4.50;;;9.60;99.80;;;;;;5071249;28;20449;-67
2021/12/20 04:34:48;;;;;;;9.80;4.13;;;9.70;99.60;;;;;;5071832;28;20178;-67
2021/12/20 04:37:14;;;;;;;8.77;4.07;;;9.70;99.80;;;;;;5070547;28;20513;-75
2021/12/20 04:39:40;;;;;;;11.73;4.23;;;9.60;99.60;;;;;;5071330;28;20172;-67
2021/12/20 04:42:08;;;;;;;13.73;3.97;;;9.50;99.80;;;;;;5071834;28;20961;-67
2021/12/20 04:44:35;;;;;;;10.13;4.80;;;9.50;99.60;;;;;;5069538;28;20450;-67
2021/12/20 04:47:01;;;;;;;9.07;4.67;;;9.60;99.90;;;;;;5072097;28;20449;-67
2021/12/20 04:49:26;;;;;;;13.90;3.97;;;9.70;99.70;;;;;;5071222;28;20415;-67
2021/12/20 04:51:56;;;;;;;10.33;4.07;;;9.70;99.20;;;;;;5055019;28;20424;-67
2021/12/20 04:54:23;;;;;;;11.93;4.30;;;9.70;99.40;;;;;;5049823;28;20217;-67
2021/12/20 04:56:48;;;;;;;6.67;3.73;;;9.70;99.80;;;;;;5051850;28;20429;-67
2021/12/20 04:59:14;;;;;;;12.17;4.07;;;9.50;99.80;;;;;;5051659;28;20425;-76
2021/12/20 05:01:40;;;;;;;8.20;4.37;;;9.50;99.90;;;;;;5052198;28;20448;-67
2021/12/20 05:04:06;;;;;;;7.80;4.13;;;9.50;99.90;;;;;;5051460;28;20202;-67
2021/12/20 05:06:33;;;;;;;9.77;4.30;;;9.50;99.90;;;;;;5050709;28;20178;-66
2021/12/20 05:09:00;;;;;;;13.70;4.87;;;9.30;99.90;;;;;;5050238;28;20218;-66
2021/12/20 05:11:29;;;;;;;16.60;4.80;;;9.30;99.90;;;;;;5050665;28;20416;-66
2021/12/20 05:13:54;;;;;;;10.90;4.67;;;9.30;99.90;;;;;;5056946;28;20486;-66
2021/12/20 05:16:20;;;;;;;12.30;5.23;;;9.20;99.90;;;;;;5090867;28;20414;-67
2021/12/20 05:18:47;;;;;;;10.47;4.77;;;9.20;99.90;;;;;;5091759;28;20204;-66
2021/12/20 05:21:12;;;;;;;17.87;5.80;;;9.20;99.90;;;;;;5094475;28;20418;-66
2021/12/20 05:23:38;;;;;;;14.73;5.60;;;9.20;99.90;;;;;;5093408;28;20562;-66
2021/12/20 05:26:04;;;;;;;12.63;5.03;;;9.20;99.90;;;;;;5095560;28;20637;-66
2021/12/20 05:28:30;;;;;;;11.67;5.50;;;9.20;99.90;;;;;;5080267;28;20283;-66
2021/12/20 05:30:55;;;;;;;17.80;5.40;;;9.30;99.90;;;;;;5074794;28;20187;-66
2021/12/20 05:33:21;;;;;;;16.80;5.30;;;9.30;99.90;;;;;;5073017;28;20298;-66
2021/12/20 05:35:47;;;;;;;12.87;5.37;;;9.30;99.90;;;;;;5073706;28;20181;-66
2021/12/20 05:38:14;;;;;;;14.60;5.47;;;9.30;99.90;;;;;;5075552;28;20403;-66
2021/12/20 05:40:39;;;;;;;12.93;5.20;;;9.20;99.90;;;;;;5074067;28;21208;-66
2021/12/20 05:43:05;;;;;;;10.30;4.87;;;9.20;99.90;;;;;;5056684;28;20471;-66
2021/12/20 05:45:31;;;;;;;13.37;5.50;;;9.20;99.90;;;;;;5054006;28;20648;-66
2021/12/20 05:47:57;;;;;;;12.73;4.93;;;9.20;99.90;;;;;;5053591;28;20435;-66
2021/12/20 05:50:24;;;;;;;13.33;5.13;;;9.20;99.90;;;;;;5052607;28;20420;-66
2021/12/20 05:52:50;;;;;;;12.73;5.47;;;9.20;99.90;;;;;;5053570;28;20232;-66
2021/12/20 05:55:17;;;;;;;21.43;5.70;;;9.10;99.90;;;;;;5054873;28;20416;-66
2021/12/20 05:57:43;;;;;;;14.37;5.57;;;9.10;99.90;;;;;;5059805;28;20441;-66
2021/12/20 06:00:14;;;;;;;13.90;5.77;;;9.00;99.90;;;;;;5073002;28;20442;-66
2021/12/20 06:02:41;;;;;;;11.23;5.40;;;8.90;99.90;;;;;;5066524;28;20721;-66
2021/12/20 06:05:07;;;;;;;15.70;5.40;;;8.80;99.90;;;;;;5093172;28;20489;-66
2021/12/20 06:07:36;;;;;;;17.27;6.30;;;8.80;99.90;;;;;;5094035;28;20411;-66
2021/12/20 06:10:02;;;;;;;15.30;5.73;;;8.70;99.90;;;;;;5091573;28;20414;-66
2021/12/20 06:12:28;;;;;;;10.07;5.53;;;8.70;99.90;;;;;;5069232;28;20465;-66
2021/12/20 06:14:54;;;;;;;19.53;6.30;;;8.70;99.90;;;;;;5074847;28;20453;-66
2021/12/20 06:17:19;;;;;;;10.57;4.80;;;8.70;99.90;;;;;;5073369;28;20181;-72
2021/12/20 06:19:45;;;;;;;14.43;5.10;;;8.70;99.90;;;;;;5073872;28;20688;-66
2021/12/20 06:22:12;;;;;;;10.10;5.07;;;8.70;99.90;;;;;;5073934;28;20449;-66
2021/12/20 06:24:38;;;;;;;14.00;4.90;;;8.70;99.90;;;;;;5061476;28;20181;-66
2021/12/20 06:27:04;;;;;;;11.60;5.03;;;8.60;99.90;;;;;;5064601;28;20421;-66
2021/12/20 06:29:30;;;;;;;13.50;4.90;;;8.60;99.90;;;;;;5073339;28;20415;-66
2021/12/20 06:31:55;;;;;;;17.97;4.67;;;8.70;99.90;;;;;;5058539;28;20427;-66
2021/12/20 06:34:21;;;;;;;13.57;4.30;;;8.50;99.90;;;;;;5071797;28;20246;-71
2021/12/20 06:36:47;;;;;;;13.03;5.20;;;8.30;99.90;;;;;;5073248;28;20181;-66
2021/12/20 06:39:13;;;;;;;13.97;4.70;;;8.30;99.90;;;;;;5058394;28;20182;-66
2021/12/20 06:41:39;;;;;;;11.30;4.20;;;8.30;99.90;;;;;;5057439;28;20984;-66
2021/12/20 06:44:06;;;;;;;10.40;4.20;;;8.40;99.90;;;;;;5073345;28;20419;-66
2021/12/20 06:46:37;;;;;;;19.40;5.43;;;8.30;99.90;;;;;;5072525;28;20505;-66
2021/12/20 06:49:05;;;;;;;10.40;4.60;;;8.20;99.90;;;;;;5070552;28;20465;-66
2021/12/20 06:51:34;;;;;;;15.00;5.27;;;8.10;99.90;;;;;;5070722;28;20440;-67
2021/12/20 06:54:01;;;;;;;15.23;4.97;;;8.10;99.90;;;;;;5036167;28;20454;-66
2021/12/20 06:56:27;;;;;;;14.03;4.70;;;8.20;99.90;;;;;;5053070;28;20515;-66
2021/12/20 06:58:54;;;;;;;12.60;4.60;;;8.00;99.90;;;;;;5053425;28;20524;-66
2021/12/20 07:01:21;;;;;;;13.53;5.03;;;8.10;99.90;;;;;;5071373;28;20431;-66
2021/12/20 07:03:47;;;;;;;10.73;5.03;;;8.10;99.90;;;;;;5071068;28;20199;-66
2021/12/20 07:06:13;;;;;;;10.37;5.40;;;8.10;99.90;;;;;;5072836;28;20502;-66
2021/12/20 07:08:39;;;;;;;11.23;4.57;;;8.10;99.90;;;;;;5072099;28;20523;-66
2021/12/20 07:11:09;;;;;;;16.43;4.37;;;8.10;99.90;;;;;;5073311;28;20234;-66
2021/12/20 07:13:34;;;;;;;8.63;3.90;;;8.10;99.90;;;;;;5071157;28;21044;-66
2021/12/20 07:16:00;;;;;;;10.00;4.80;;;8.00;99.90;;;;;;5073479;28;20506;-66
2021/12/20 07:18:26;;;;;;;8.90;3.83;;;8.10;99.90;;;;;;5071110;28;20190;-67
2021/12/20 07:20:52;;;;;;;16.60;5.40;;;8.00;99.90;;;;;;5072794;28;20207;-66
2021/12/20 07:23:17;;;;;;;9.47;5.30;;;7.90;99.80;;;;;;5072979;28;20415;-66
2021/12/20 07:25:43;;;;;;;7.47;5.47;;;7.90;99.90;;;;;;5066677;28;20532;-66
2021/12/20 07:28:09;;;;;;;13.50;4.63;;;7.80;99.90;;;;;;5064959;28;20189;-66
2021/12/20 07:30:35;;;;;;;12.90;5.23;;;7.80;99.90;;;;;;5055203;28;20176;-66
2021/12/20 07:33:01;;;;;;;8.43;4.70;;;7.80;99.90;;;;;;5053035;28;20559;-66
2021/12/20 07:35:27;;;;;;;13.30;5.10;;;7.80;99.90;;;;;;5053539;28;20502;-66
2021/12/20 07:37:56;;;;;;;7.90;4.23;;;7.80;99.90;;;;;;5056179;28;20440;-66
2021/12/20 07:40:22;;;;;;;11.80;4.90;;;7.90;99.90;;;;;;5071413;28;20433;-72
2021/12/20 07:42:48;;;;;;;8.03;4.70;;;7.80;99.90;;;;;;5070211;28;20425;-66
2021/12/20 07:45:14;;;;;;;11.07;4.60;;;7.70;99.90;;;;;;5071494;28;20793;-66
2021/12/20 07:47:40;;;;;;;11.07;4.70;;;7.70;99.90;;;;;;5071070;28;20177;-66
2021/12/20 07:50:07;;;;;;;10.90;5.77;;;7.70;99.90;;;;;;5062405;28;20430;-67
2021/12/20 07:52:33;;;;;;;13.50;5.33;;;7.80;99.90;;;;;;5059807;28;20268;-67
2021/12/20 07:55:00;;;;;;;10.23;4.87;;;7.80;99.90;;;;;;5063966;28;20497;-68
2021/12/20 07:57:26;;;;;;;11.70;4.67;;;7.80;99.90;;;;;;5070723;28;20907;-72
2021/12/20 07:59:52;;;;;;;15.97;4.87;;;7.80;99.90;;;;;;5071736;28;20467;-67
2021/12/20 08:02:18;;;;;;;8.47;5.20;;;7.80;99.90;;;;;;5071711;28;20843;-68
2021/12/20 08:04:49;;;;;;;13.93;6.40;;;7.80;99.90;;;;;;5054463;28;20727;-69
2021/12/20 08:07:16;;;;;;;11.70;7.30;;;7.80;99.90;;;;;;5052601;28;20176;-69
2021/12/20 08:09:41;;;;;;;11.07;7.37;;;8.40;99.90;;;;;;5051560;28;20499;-69
2021/12/20 08:12:08;;;;;;;14.37;7.53;;;9.10;99.90;;;;;;5051772;28;20558;-69
2021/12/20 08:14:34;;;;;;;16.80;8.20;;;10.00;99.90;;;;;;5074807;28;20179;-69
2021/12/20 08:17:00;;;;;;;14.43;7.07;;;10.50;99.90;;;;;;5073181;28;20425;-70
2021/12/20 08:19:25;;;;;;;11.03;6.70;;;11.00;99.90;;;;;;5069611;28;20425;-70
2021/12/20 08:21:51;;;;;;;9.00;6.30;;;11.50;99.60;;;;;;5066581;28;20250;-70
2021/12/20 08:24:17;;;;;;;13.20;7.97;;;11.90;97.80;;;;;;5067786;28;20188;-71
2021/12/20 08:26:43;;;;;;;11.67;6.67;;;12.30;96.20;;;;;;5071574;28;20203;-69
2021/12/20 08:29:08;;;;;;;11.70;6.40;;;12.60;99.60;;;;;;5071304;28;20498;-68
2021/12/20 08:31:36;;;;;;;12.17;6.10;;;12.90;96.30;;;;;;5072995;28;20212;-67
2021/12/20 08:34:03;;;;;;;13.20;6.93;;;13.10;94.10;;;;;;5053930;28;20593;-67
2021/12/20 08:36:29;;;;;;;13.80;6.90;;;13.40;93.20;;;;;;5070741;28;20418;-69
2021/12/20 08:38:55;;;;;;;14.83;6.83;;;13.30;90.10;;;;;;5067110;28;20432;-67
2021/12/20 08:41:21;;;;;;;17.17;7.73;;;13.10;87.60;;;;;;5071636;28;20173;-67
2021/12/20 08:43:46;;;;;;;10.33;7.10;;;12.90;86.60;;;;;;5070831;28;20411;-67
2021/12/20 08:46:15;;;;;;;17.37;7.70;;;12.40;87.00;;;;;;5068917;28;20463;-67
2021/12/20 08:48:45;;;;;;;12.60;5.90;;;12.10;88.20;;;;;;5070765;28;20181;-67
2021/12/20 08:51:12;;;;;;;11.70;6.40;;;11.80;88.60;;;;;;5070977;28;20870;-67
2021/12/20 08:53:39;;;;;;;11.07;6.03;;;11.70;89.80;;;;;;5070413;28;20481;-68
2021/12/20 08:56:06;;;;;;;12.63;6.50;;;11.60;90.20;;;;;;5074312;28;20454;-67
2021/12/20 08:58:31;;;;;;;9.30;6.30;;;11.50;90.80;;;;;;5074991;28;20417;-68
2021/12/20 09:00:57;;;;;;;12.87;6.23;;;11.70;91.20;;;;;;5058237;28;20467;-68
2021/12/20 09:03:23;;;;;;;11.40;6.47;;;12.00;91.40;;;;;;5056274;28;20312;-67
2021/12/20 09:05:49;;;;;;;12.93;7.03;;;12.50;91.00;;;;;;5055597;28;20399;-67
2021/12/20 09:08:17;;;;;;;10.53;6.33;;;13.20;90.10;;;;;;5056292;28;20421;-69
2021/12/20 09:10:43;;;;;;;10.17;6.43;;;13.80;87.10;;;;;;5070149;28;20170;-69
2021/12/20 09:13:09;;;;;;;14.53;7.43;;;14.40;83.40;;;;;;5075613;28;20477;-68
2021/12/20 09:15:36;;;;;;;12.57;8.30;;;15.00;81.00;;;;;;5074691;28;20321;-68
2021/12/20 09:18:03;;;;;;;13.97;8.20;;;15.60;78.70;;;;;;5075549;28;20807;-68
2021/12/20 09:20:30;;;;;;;10.90;7.67;;;16.30;75.60;;;;;;5074632;28;20505;-69
2021/12/20 09:23:07;;;;;;;14.03;7.77;;;17.00;72.40;;;;;;5074418;28;20516;-69
2021/12/20 09:25:35;;;;;;;13.03;7.47;;;17.40;68.00;;;;;;5064906;28;20431;-70
2021/12/20 09:28:05;;;;;;;13.60;8.30;;;17.60;67.60;;;;;;5072026;28;20423;-69
2021/12/20 09:30:31;;;;;;;16.77;9.13;;;17.80;66.00;;;;;;5060021;28;20428;-73
2021/12/20 09:32:57;;;;;;;11.97;7.77;;;18.00;64.50;;;;;;5069848;28;20554;-67
2021/12/20 09:35:23;;;;;;;10.40;6.97;;;18.40;64.00;;;;;;5072257;28;20430;-67
2021/12/20 09:37:51;;;;;;;12.20;7.83;;;19.00;61.50;;;;;;5072800;28;20423;-67
2021/12/20 09:40:20;;;;;;;12.50;7.10;;;19.20;59.40;;;;;;5071304;28;20177;-69
2021/12/20 09:42:51;;;;;;;12.93;8.00;;;19.20;59.10;;;;;;5072997;28;20525;-68
2021/12/20 09:45:19;;;;;;;14.53;7.67;;;18.90;59.10;;;;;;5071658;28;20532;-69
2021/12/20 09:47:45;;;;;;;11.70;6.73;;;18.70;59.90;;;;;;5084713;28;20431;-68
2021/12/20 09:50:12;;;;;;;12.27;8.33;;;18.80;59.90;;;;;;5073306;28;20419;-68
2021/12/20 09:52:39;;;;;;;12.57;6.83;;;18.80;59.60;;;;;;5071569;28;20508;-67
2021/12/20 09:55:06;;;;;;;10.43;6.00;;;18.90;59.20;;;;;;5071456;28;21115;-69
2021/12/20 09:57:32;;;;;;;15.10;6.70;;;19.00;58.50;;;;;;5068969;28;20420;-73
2021/12/20 10:00:02;;;;;;;13.70;6.73;;;19.00;58.50;;;;;;5073050;28;20411;-68
2021/12/20 10:02:28;;;;;;;9.93;6.77;;;19.00;58.50;;;;;;5070351;28;20415;-67
2021/12/20 10:04:56;;;;;;;10.33;6.37;;;19.60;58.20;;;;;;5068622;28;20468;-68
2021/12/20 10:07:25;;;;;;;14.60;7.40;;;19.70;56.80;;;;;;5073332;28;20200;-68
2021/12/20 10:09:51;;;;;;;12.13;7.70;;;19.70;57.20;;;;;;5072596;28;20474;-68
2021/12/20 10:12:21;;;;;;;14.27;7.30;;;19.60;56.40;;;;;;5069490;28;20432;-68
2021/12/20 10:15:07;;;;;;;12.43;7.30;;;19.80;56.30;;;;;;5067633;28;20522;-67
2021/12/20 10:17:56;;;;;;;14.27;7.87;;;20.50;56.00;;;;;;5068531;28;20458;-67
2021/12/20 10:20:49;;;;;;;10.43;7.30;;;21.20;54.10;;;;;;5072144;28;20408;-68
2021/12/20 10:23:19;;;;;;;10.43;6.67;;;21.80;53.40;;;;;;5073758;28;20781;-68
2021/12/20 10:25:52;;;;;;;10.17;5.93;;;21.70;52.20;;;;;;5069982;28;20522;-68
2021/12/20 10:28:22;;;;;;;8.70;5.30;;;22.00;52.20;;;;;;5073342;28;20478;-68
2021/12/20 10:30:56;;;;;;;13.23;6.40;;;22.40;51.30;;;;;;5073477;28;20434;-67
2021/12/20 10:33:23;;;;;;;9.80;5.90;;;22.60;51.00;;;;;;5073439;28;20447;-67
2021/12/20 10:35:57;;;;;;;8.67;6.00;;;22.60;52.50;;;;;;5070162;28;20784;-69
2021/12/20 10:38:39;;;;;;;9.93;5.70;;;22.70;52.20;;;;;;5062554;28;20877;-68
2021/12/20 10:41:14;;;;;;;10.10;5.80;;;22.90;50.70;;;;;;5072540;28;20453;-68
2021/12/20 10:43:49;;;;;;;9.97;6.67;;;22.90;50.20;;;;;;5072157;28;20415;-73
2021/12/20 10:46:20;;;;;;;11.03;5.70;;;22.80;50.80;;;;;;5068146;28;20500;-70
2021/12/20 10:48:50;;;;;;;9.07;6.10;;;22.40;50.30;;;;;;5066975;28;20884;-72
2021/12/20 10:51:29;;;;;;;11.53;6.77;;;22.10;51.50;;;;;;5073313;28;20752;-71
2021/12/20 10:54:00;;;;;;;13.97;5.80;;;22.00;51.60;;;;;;5069268;28;20458;-71
2021/12/20 10:56:29;;;;;;;8.17;5.80;;;21.90;52.90;;;;;;5070503;28;20396;-71
2021/12/20 10:58:56;;;;;;;13.50;5.47;;;21.30;52.20;;;;;;5070568;28;20532;-71
2021/12/20 11:04:13;;;;;;;11.50;5.57;;;20.60;54.00;;;;;;5073295;28;20494;-73
2021/12/20 11:09:18;;;;;;;9.97;5.10;;;19.80;55.50;;;;;;5073456;28;20855;-72
2021/12/20 11:11:49;;;;;;;8.43;5.30;;;19.70;55.40;;;;;;5072769;28;20410;-72
2021/12/20 11:14:17;;;;;;;13.10;6.23;;;19.30;55.60;;;;;;5073684;28;20482;-72
2021/12/20 11:16:54;;;;;;;11.87;6.20;;;19.10;57.30;;;;;;5072632;28;20564;-72
2021/12/20 11:19:23;;;;;;;8.03;5.90;;;18.80;57.60;;;;;;5072953;28;20404;-72
2021/12/20 11:21:55;;;;;;;7.73;5.07;;;18.80;57.20;;;;;;5072877;28;20407;-71
2021/12/20 11:24:24;;;;;;;10.57;6.87;;;18.70;56.90;;;;;;5073446;28;20415;-72
2021/12/20 11:26:52;;;;;;;11.97;5.80;;;18.70;57.80;;;;;;5072858;28;20703;-72
2021/12/20 11:29:19;;;;;;;11.87;5.43;;;18.60;56.50;;;;;;5073333;28;20407;-72
2021/12/20 11:31:45;;;;;;;8.67;5.40;;;18.40;57.70;;;;;;5072448;28;20493;-72
2021/12/20 11:34:11;;;;;;;8.90;5.33;;;18.10;57.00;;;;;;5073219;28;20447;-72
2021/12/20 11:36:37;;;;;;;10.80;6.10;;;17.90;56.90;;;;;;5072460;28;20767;-73
2021/12/20 11:39:06;;;;;;;7.23;5.30;;;17.70;58.20;;;;;;5073288;28;20395;-72
2021/12/20 11:41:32;;;;;;;6.97;5.53;;;17.60;58.80;;;;;;5073124;28;20416;-74
2021/12/20 11:43:59;;;;;;;6.63;5.40;;;17.40;58.10;;;;;;5073154;28;20836;-72
2021/12/20 11:46:30;;;;;;;9.53;5.50;;;17.30;58.20;;;;;;5072385;28;20479;-72
2021/12/20 11:48:57;;;;;;;6.87;5.00;;;17.10;59.10;;;;;;5072049;28;20802;-72
2021/12/20 11:51:23;;;;;;;8.93;5.67;;;16.90;58.60;;;;;;5072175;28;20502;-72
2021/12/20 11:53:49;;;;;;;8.10;4.90;;;16.70;59.20;;;;;;5071844;28;20458;-72
2021/12/20 11:56:15;;;;;;;6.33;4.70;;;16.50;60.00;;;;;;5072626;28;20215;-72
2021/12/20 11:58:46;;;;;;;10.07;4.93;;;16.40;60.50;;;;;;5071730;28;20175;-67
2021/12/20 12:01:19;;;;;;;8.70;4.93;;;16.30;58.80;;;;;;5067745;28;20838;-68
2021/12/20 12:03:53;;;;;;;10.67;5.10;;;16.20;58.60;;;;;;5073675;28;20407;-68
2021/12/20 12:06:30;;;;;;;6.73;4.20;;;16.00;58.10;;;;;;5072692;28;20459;-68
2021/12/20 12:08:59;;;;;;;9.10;4.50;;;15.60;58.20;;;;;;5071407;28;20396;-68
2021/12/20 12:11:25;;;;;;;6.63;4.47;;;15.40;59.00;;;;;;5071739;28;20842;-67
2021/12/20 12:14:07;;;;;;;8.50;4.10;;;15.10;60.00;;;;;;5071074;28;20551;-68
2021/12/20 12:17:02;;;;;;;5.17;4.67;;;14.90;60.40;;;;;;5072138;28;20507;-72
2021/12/20 12:19:52;;;;;;;5.33;4.90;;;14.70;59.30;;;;;;5072394;28;20396;-68
2021/12/20 12:22:33;;;;;;;5.80;3.73;;;14.50;59.50;;;;;;5071665;28;20413;-68
2021/12/20 12:24:59;;;;;;;5.90;3.70;;;14.40;58.80;;;;;;5070493;28;20427;-68
2021/12/20 12:27:31;;;;;;;5.93;4.30;;;14.30;59.40;;;;;;5071439;28;20407;-67
2021/12/20 12:30:12;;;;;;;6.53;3.90;;;14.20;59.30;;;;;;5069900;28;20407;-69
2021/12/20 12:32:38;;;;;;;5.03;3.47;;;14.00;58.60;;;;;;5071083;28;20461;-74
2021/12/20 12:35:04;;;;;;;6.40;4.13;;;14.00;59.50;;;;;;5071561;28;20418;-67
2021/12/20 12:37:35;;;;;;;6.20;4.03;;;13.90;59.20;;;;;;5072255;28;20414;-68
2021/12/20 12:40:27;;;;;;;5.20;3.87;;;13.80;58.90;;;;;;5071745;28;20421;-68
2021/12/20 12:43:08;;;;;;;5.13;3.50;;;13.60;59.20;;;;;;5070777;28;20536;-68
2021/12/20 12:45:50;;;;;;;7.10;3.93;;;13.50;59.00;;;;;;5072058;28;20561;-67
2021/12/20 12:48:32;;;;;;;6.20;3.60;;;13.40;60.40;;;;;;5070557;28;20469;-67
2021/12/20 12:51:02;;;;;;;8.97;3.60;;;13.30;59.60;;;;;;5071039;28;20410;-68
2021/12/20 12:53:38;;;;;;;4.77;3.40;;;13.10;59.50;;;;;;5071791;28;20450;-67
2021/12/20 12:56:25;;;;;;;4.80;3.67;;;13.10;60.90;;;;;;5072221;28;20441;-68
2021/12/20 12:59:12;;;;;;;7.03;3.10;;;12.80;60.40;;;;;;5070987;28;20428;-67
2021/12/20 13:01:40;;;;;;;4.37;3.37;;;12.60;59.80;;;;;;5070905;28;20937;-74
2021/12/20 13:04:06;;;;;;;4.80;2.80;;;12.50;61.40;;;;;;5071134;28;20904;-68
2021/12/20 13:06:32;;;;;;;5.27;3.20;;;12.60;61.90;;;;;;5071482;28;20807;-68
2021/12/20 13:09:01;;;;;;;4.93;3.30;;;12.60;61.80;;;;;;5070817;28;20416;-68